Terminal Aerodrome Forecast
Issued by NWS

Home | Current Version | Previous Version | Text Only | Print | Product List | Glossary On
Versions: 1 2 3 4 5 6 7 8 9 10 11 12 13 14 15 16 17
000
FTUS41 KBTV 030534
TAFRUT
TAF
KRUT 030534Z 0306/0406 30006KT P6SM FEW250
     FM031300 VRB03KT P6SM SCT080 BKN150
     FM032100 16007G17KT 6SM BR SCT015 OVC035
     FM032300 16009G20KT 3SM -SN BR SCT008 OVC030
     FM040100 16011G20KT 2SM -SN BR SCT008 OVC015
      AMD LTD TO CLD VIS AND WIND=

USA.gov is the U.S. government's official web portal to all federal, state and local government web resources and services.